Time;durP1;ratioP1;P1;durP2;ratioP2;P2;SDS_P1;SDS_P2;PMS_P1;PMS_P2;Temp;Humidity;BMP_temperature;BMP_pressure;BME280_temperature;BME280_humidity;BME280_pressure;Samples;Min_cycle;Max_cycle;Signal;HPM_P1;HPM_P2
2022/09/05 00:00:04;;;;;;;2.50;1.77;;;;;;;19.04;100.00;101980.09;5043035;28;20457;-76
2022/09/05 00:02:38;;;;;;;2.03;1.87;;;;;;;19.73;100.00;102086.00;5041022;28;20941;-75
2022/09/05 00:05:39;;;;;;;2.27;1.93;;;;;;;19.76;100.00;102083.66;5040071;28;20536;-75
2022/09/05 00:08:18;;;;;;;2.03;1.67;;;;;;;19.76;100.00;102085.53;5026572;28;20548;-75
2022/09/05 00:11:18;;;;;;;2.10;1.90;;;;;;;19.52;100.00;102030.13;5045708;28;20491;-75
2022/09/05 00:14:22;;;;;;;2.17;1.70;;;;;;;19.64;100.00;102053.63;5041937;28;20434;-75
2022/09/05 00:17:05;;;;;;;2.13;1.97;;;;;;;19.78;100.00;102077.97;5041556;28;20453;-75
2022/09/05 00:19:57;;;;;;;2.10;1.80;;;;;;;19.69;100.00;102085.63;5044279;28;20483;-75
2022/09/05 00:22:49;;;;;;;2.23;1.90;;;;;;;19.76;100.00;102083.66;5021602;28;20473;-75
2022/09/05 00:25:53;;;;;;;2.83;1.93;;;;;;;19.70;100.00;102078.28;5037461;28;20450;-75
2022/09/05 00:28:36;;;;;;;2.13;2.00;;;;;;;19.50;100.00;102035.81;5034677;28;20486;-75
2022/09/05 00:31:32;;;;;;;1.97;1.77;;;;;;;19.70;100.00;102075.56;5042577;28;20425;-76
2022/09/05 00:34:10;;;;;;;2.20;1.90;;;;;;;19.64;100.00;102078.13;5028831;28;20434;-76
2022/09/05 00:36:52;;;;;;;1.90;1.77;;;;;;;19.72;100.00;102077.00;5039799;28;20520;-75
2022/09/05 00:39:23;;;;;;;2.63;1.90;;;;;;;18.92;100.00;101969.16;5047187;28;21084;-75
2022/09/05 00:41:51;;;;;;;1.87;1.67;;;;;;;18.69;100.00;101931.75;5045885;28;20838;-76
2022/09/05 00:44:25;;;;;;;1.97;1.47;;;;;;;19.20;100.00;102014.00;5041270;28;20792;-76
2022/09/05 00:47:05;;;;;;;2.53;1.70;;;;;;;19.58;100.00;102075.47;5047259;28;20450;-76
2022/09/05 00:49:46;;;;;;;1.70;1.60;;;;;;;19.59;100.00;102064.38;5043530;28;20984;-75
2022/09/05 00:52:26;;;;;;;1.90;1.67;;;;;;;19.42;100.00;102034.22;5040574;28;20445;-76
2022/09/05 00:54:54;;;;;;;1.80;1.70;;;;;;;19.72;100.00;102071.56;5022640;28;20815;-76
2022/09/05 00:57:38;;;;;;;1.93;1.80;;;;;;;19.17;100.00;102007.13;5043488;28;20548;-75
2022/09/05 01:00:14;;;;;;;1.83;1.73;;;;;;;19.63;100.00;102073.72;5043519;28;20430;-76
2022/09/05 01:03:08;;;;;;;2.63;1.70;;;;;;;19.53;100.00;102075.34;5045841;28;20520;-75
2022/09/05 01:05:55;;;;;;;2.70;1.83;;;;;;;19.61;100.00;102069.56;5047882;28;20441;-75
2022/09/05 01:09:25;;;;;;;2.20;1.60;;;;;;;19.49;100.00;102047.75;5043022;28;21056;-75
2022/09/05 01:12:09;;;;;;;2.30;1.60;;;;;;;19.59;100.00;102069.00;4951640;28;20445;-75
2022/09/05 01:14:50;;;;;;;2.60;1.83;;;;;;;19.57;100.00;102074.66;5044577;28;20487;-76
2022/09/05 01:17:46;;;;;;;2.07;1.83;;;;;;;19.54;100.00;102074.28;5029499;28;20507;-75
2022/09/05 01:20:50;;;;;;;2.57;2.03;;;;;;;19.44;100.00;102053.06;5043497;28;20753;-76
2022/09/05 01:23:52;;;;;;;2.87;1.73;;;;;;;19.48;100.00;102075.19;5004925;28;20814;-76
2022/09/05 01:27:03;;;;;;;2.13;1.70;;;;;;;19.37;100.00;102053.13;5030270;28;20433;-76
2022/09/05 01:29:45;;;;;;;1.60;1.50;;;;;;;19.43;100.00;102073.16;5006398;28;20988;-76
2022/09/05 01:32:18;;;;;;;1.70;1.60;;;;;;;19.08;100.00;102027.53;5046109;28;20441;-76
2022/09/05 01:35:31;;;;;;;8.10;2.40;;;;;;;19.40;100.00;102066.28;5047254;28;20576;-76
2022/09/05 01:38:20;;;;;;;3.40;2.17;;;;;;;19.32;100.00;102071.19;4949032;28;20450;-76
2022/09/05 01:41:06;;;;;;;4.90;1.90;;;;;;;18.89;100.00;101993.22;4964544;28;20676;-76
2022/09/05 01:43:43;;;;;;;2.17;1.50;;;;;;;19.28;100.00;102064.56;5032445;28;20442;-76
2022/09/05 01:46:35;;;;;;;2.90;2.10;;;;;;;19.31;100.00;102064.09;5044987;28;20526;-76
2022/09/05 01:49:14;;;;;;;3.27;1.83;;;;;;;19.06;100.00;102036.97;5045297;28;20473;-76
2022/09/05 01:52:24;;;;;;;1.50;1.40;;;;;;;19.29;100.00;102064.31;5046113;28;20441;-76
2022/09/05 01:55:02;;;;;;;2.10;1.90;;;;;;;19.25;100.00;102062.28;4966856;28;20451;-75
2022/09/05 01:57:38;;;;;;;2.60;2.23;;;;;;;18.94;100.00;102039.59;5035232;28;20547;-76
2022/09/05 02:00:13;;;;;;;2.30;1.60;;;;;;;19.07;100.00;102066.66;5040324;28;20434;-76
2022/09/05 02:02:52;;;;;;;1.80;1.70;;;;;;;19.14;100.00;102072.84;5043634;28;20790;-76
2022/09/05 02:05:38;;;;;;;2.17;1.83;;;;;;;18.62;100.00;102011.69;5046263;28;20441;-76
2022/09/05 02:08:25;;;;;;;3.03;1.70;;;;;;;19.07;100.00;102063.94;5044578;28;20489;-76
2022/09/05 02:11:04;;;;;;;3.23;2.20;;;;;;;19.02;100.00;102065.69;5044013;28;21003;-76
2022/09/05 02:13:33;;;;;;;2.93;1.60;;;;;;;18.92;100.00;102066.22;5045899;28;20961;-75
2022/09/05 02:16:01;;;;;;;1.93;1.73;;;;;;;18.95;100.00;102065.75;5041194;28;20434;-76
2022/09/05 02:18:59;;;;;;;2.03;1.60;;;;;;;18.94;100.00;102062.19;5025780;28;20461;-75
2022/09/05 02:21:24;;;;;;;2.17;1.57;;;;;;;19.04;100.00;102071.72;5037775;28;20507;-75
2022/09/05 02:24:13;;;;;;;1.73;1.63;;;;;;;19.08;100.00;102062.88;5044877;28;20434;-76
2022/09/05 02:26:46;;;;;;;3.00;2.30;;;;;;;19.04;100.00;102080.72;5043257;28;20180;-76
2022/09/05 02:29:50;;;;;;;2.73;2.00;;;;;;;18.57;100.00;102015.06;5040552;28;27285;-76
2022/09/05 02:32:31;;;;;;;1.60;1.50;;;;;;;18.74;100.00;102059.66;5028963;28;20803;-76
2022/09/05 02:35:12;;;;;;;2.10;1.77;;;;;;;18.89;100.00;102072.06;5043811;28;20438;-75
2022/09/05 02:37:46;;;;;;;2.37;1.90;;;;;;;18.67;100.00;102064.31;5045458;28;20449;-76
2022/09/05 02:40:20;;;;;;;4.10;2.00;;;;;;;18.81;100.00;102070.47;5042256;28;20863;-76
2022/09/05 02:42:56;;;;;;;2.17;1.97;;;;;;;18.65;100.00;102081.88;5040985;28;20442;-76
2022/09/05 02:45:40;;;;;;;2.30;2.00;;;;;;;18.84;100.00;102059.16;5037533;28;20476;-75
2022/09/05 02:48:24;;;;;;;1.80;1.70;;;;;;;18.92;100.00;102067.03;5042533;28;20477;-75
2022/09/05 02:51:03;;;;;;;1.90;1.80;;;;;;;18.77;100.00;102069.25;5044468;28;20445;-75
2022/09/05 02:53:31;;;;;;;2.03;1.77;;;;;;;18.61;100.00;102072.53;5044037;28;20433;-75
2022/09/05 02:56:06;;;;;;;2.00;1.77;;;;;;;18.59;100.00;102071.91;5043045;28;20480;-75
2022/09/05 02:58:54;;;;;;;4.17;2.77;;;;;;;18.57;100.00;102061.25;5042857;28;20544;-75
2022/09/05 03:02:10;;;;;;;2.97;1.73;;;;;;;18.32;100.00;102046.84;5042187;28;20477;-75
2022/09/05 03:04:45;;;;;;;2.47;1.70;;;;;;;18.61;100.00;102067.91;5037748;28;20854;-75
2022/09/05 03:07:29;;;;;;;3.23;2.20;;;;;;;18.34;100.00;102066.44;5025308;28;20988;-76
2022/09/05 03:10:20;;;;;;;2.17;1.70;;;;;;;18.49;100.00;102061.53;5043770;28;20454;-76
2022/09/05 03:13:03;;;;;;;2.97;2.00;;;;;;;18.28;100.00;102068.16;5041239;28;20442;-76
2022/09/05 03:16:06;;;;;;;2.47;1.60;;;;;;;18.38;100.00;102062.25;5044404;28;20533;-76
2022/09/05 03:18:34;;;;;;;2.67;1.90;;;;;;;18.12;100.00;102061.41;5043900;28;21060;-76
2022/09/05 03:21:02;;;;;;;3.03;1.90;;;;;;;18.25;100.00;102072.19;5039337;28;20436;-76
2022/09/05 03:24:02;;;;;;;1.80;1.57;;;;;;;18.34;100.00;102063.72;5045255;28;20783;-75
2022/09/05 03:26:46;;;;;;;3.87;1.67;;;;;;;18.07;100.00;102069.34;5038969;28;20953;-76
2022/09/05 03:29:26;;;;;;;1.67;1.57;;;;;;;18.10;100.00;102068.09;5043397;28;20473;-76
2022/09/05 03:32:37;;;;;;;1.83;1.70;;;;;;;17.84;100.00;102078.88;5041837;28;20927;-76
2022/09/05 03:35:08;;;;;;;2.00;1.70;;;;;;;17.82;100.00;102072.88;5023529;28;20442;-76
2022/09/05 03:37:49;;;;;;;3.50;2.00;;;;;;;18.08;100.00;102073.75;5045217;28;20977;-76
2022/09/05 03:40:56;;;;;;;4.40;2.20;;;;;;;17.92;100.00;102074.25;5040531;28;20434;-76
2022/09/05 03:43:36;;;;;;;2.20;1.80;;;;;;;17.99;100.00;102075.91;5002335;28;20445;-76
2022/09/05 03:46:25;;;;;;;3.60;2.30;;;;;;;17.84;100.00;102080.78;5026909;28;20434;-76
2022/09/05 03:49:13;;;;;;;1.70;1.60;;;;;;;17.32;100.00;101982.28;5024188;28;20970;-76
2022/09/05 03:51:59;;;;;;;2.30;2.10;;;;;;;17.98;100.00;102082.34;5043326;28;20442;-76
2022/09/05 03:54:36;;;;;;;3.30;2.37;;;;;;;18.28;100.00;102070.88;5040406;28;20458;-76
2022/09/05 03:57:23;;;;;;;2.43;1.70;;;;;;;18.14;100.00;102075.59;5043168;28;20831;-76
2022/09/05 04:00:09;;;;;;;5.77;2.40;;;;;;;18.09;100.00;102075.41;5043313;28;20993;-76
2022/09/05 04:02:51;;;;;;;1.80;1.70;;;;;;;17.43;100.00;102002.47;5041459;28;20433;-75
2022/09/05 04:05:23;;;;;;;2.20;1.93;;;;;;;17.45;100.00;102019.38;5043258;28;20437;-75
2022/09/05 04:07:58;;;;;;;1.67;1.57;;;;;;;17.94;100.00;102080.31;5041739;28;20457;-75
2022/09/05 04:10:26;;;;;;;2.97;1.97;;;;;;;18.01;100.00;102081.09;5042286;28;20461;-76
2022/09/05 04:13:15;;;;;;;2.47;2.10;;;;;;;17.82;100.00;102010.44;5027710;28;20446;-76
2022/09/05 04:15:45;;;;;;;1.77;1.67;;;;;;;18.22;100.00;102093.50;5042085;28;20434;-75
2022/09/05 04:18:21;;;;;;;2.40;2.20;;;;;;;17.84;100.00;102087.03;5041940;28;20457;-75
2022/09/05 04:21:00;;;;;;;2.90;2.20;;;;;;;18.05;100.00;102090.47;5041183;28;20556;-76
2022/09/05 04:23:34;;;;;;;4.20;2.10;;;;;;;18.09;100.00;102102.56;5038455;28;20433;-75
2022/09/05 04:26:18;;;;;;;2.80;2.20;;;;;;;17.95;100.00;102093.66;5040306;28;20437;-75
2022/09/05 04:28:49;;;;;;;1.73;1.57;;;;;;;18.02;100.00;102099.03;5043023;28;20492;-76
2022/09/05 04:31:33;;;;;;;2.00;1.73;;;;;;;17.96;100.00;102094.47;5020879;28;20450;-76
2022/09/05 04:34:07;;;;;;;3.27;2.33;;;;;;;18.02;100.00;102093.59;5043972;28;20515;-75
2022/09/05 04:36:35;;;;;;;2.33;1.80;;;;;;;17.65;100.00;102021.97;5027671;28;20480;-76
2022/09/05 04:39:17;;;;;;;2.30;1.80;;;;;;;17.72;100.00;102055.34;5046546;28;20503;-76
2022/09/05 04:41:55;;;;;;;3.20;2.00;;;;;;;18.00;100.00;102093.03;5039855;28;20939;-76
2022/09/05 04:44:29;;;;;;;2.57;2.00;;;;;;;17.61;100.00;102049.53;5048980;28;20449;-75
2022/09/05 04:47:07;;;;;;;2.20;1.83;;;;;;;17.79;100.00;102096.88;5047729;28;20517;-76
2022/09/05 04:49:38;;;;;;;2.03;1.93;;;;;;;18.06;100.00;102105.72;5029383;28;20465;-76
2022/09/05 04:52:25;;;;;;;2.10;1.90;;;;;;;17.96;100.00;102098.03;5045248;28;20434;-76
2022/09/05 04:55:01;;;;;;;3.00;2.10;;;;;;;17.71;100.00;102031.97;5027424;28;20830;-76
2022/09/05 04:58:06;;;;;;;2.90;2.00;;;;;;;18.00;100.00;102087.59;5044198;28;21059;-75
2022/09/05 05:00:56;;;;;;;2.70;2.07;;;;;;;18.06;100.00;102101.13;5005989;28;20491;-76
2022/09/05 05:03:27;;;;;;;2.40;1.70;;;;;;;17.53;100.00;102051.66;5048230;28;20453;-76
2022/09/05 05:06:01;;;;;;;2.50;1.83;;;;;;;18.13;100.00;102101.06;5047818;28;20438;-75
2022/09/05 05:08:38;;;;;;;2.30;2.10;;;;;;;17.79;100.00;102078.72;5042884;28;20468;-74
2022/09/05 05:11:50;;;;;;;2.90;1.70;;;;;;;18.12;100.00;102110.28;5042790;28;20449;-75
2022/09/05 05:14:34;;;;;;;1.97;1.77;;;;;;;18.01;100.00;102105.53;5024668;28;20449;-75
2022/09/05 05:17:11;;;;;;;2.60;2.23;;;;;;;17.68;100.00;102046.81;5028618;28;20545;-75
2022/09/05 05:20:03;;;;;;;2.23;1.97;;;;;;;17.80;100.00;102103.97;5043322;28;20440;-75
2022/09/05 05:22:29;;;;;;;4.53;2.17;;;;;;;17.44;100.00;102015.00;5009331;28;20488;-76
2022/09/05 05:24:56;;;;;;;2.40;1.97;;;;;;;17.95;100.00;102100.97;5030409;28;20962;-76
2022/09/05 05:27:32;;;;;;;2.53;2.33;;;;;;;17.20;100.00;102000.28;5048705;28;20584;-76
2022/09/05 05:30:06;;;;;;;3.10;1.90;;;;;;;17.61;100.00;102079.38;5043929;28;20478;-76
2022/09/05 05:32:41;;;;;;;3.40;2.10;;;;;;;17.08;100.00;102006.38;5044517;28;20442;-76
2022/09/05 05:35:11;;;;;;;2.43;2.07;;;;;;;17.83;100.00;102109.78;5029076;28;20434;-75
2022/09/05 05:37:49;;;;;;;2.80;2.13;;;;;;;17.77;100.00;102124.19;5024015;28;20482;-75
2022/09/05 05:40:14;;;;;;;3.23;2.00;;;;;;;18.07;100.00;102129.09;5041660;28;21797;-75
2022/09/05 05:42:41;;;;;;;2.80;2.27;;;;;;;17.74;100.00;102140.91;5042751;28;20438;-75
2022/09/05 05:45:27;;;;;;;3.40;2.27;;;;;;;16.86;100.00;102005.78;5045544;28;20183;-75
2022/09/05 05:47:58;;;;;;;4.33;2.27;;;;;;;17.89;100.00;102129.00;5051228;28;20537;-75
2022/09/05 05:50:39;;;;;;;2.17;1.73;;;;;;;18.05;100.00;102140.19;5044676;28;20481;-76
2022/09/05 05:53:41;;;;;;;2.90;2.17;;;;;;;17.94;100.00;102140.03;5041269;28;20465;-76
2022/09/05 05:56:34;;;;;;;3.20;2.43;;;;;;;18.24;100.00;102140.28;5044812;28;20433;-76
2022/09/05 05:59:21;;;;;;;2.00;1.90;;;;;;;18.08;100.00;102141.63;5044616;28;21009;-76
2022/09/05 06:02:23;;;;;;;3.13;2.40;;;;;;;18.11;100.00;102141.19;5044866;28;20437;-76
2022/09/05 06:05:33;;;;;;;2.20;2.00;;;;;;;18.21;100.00;102146.97;5042153;28;20479;-75
2022/09/05 06:08:17;;;;;;;3.00;2.10;;;;;;;18.09;100.00;102142.47;5040791;28;20454;-75
2022/09/05 06:11:05;;;;;;;2.30;2.10;;;;;;;18.05;100.00;102126.59;5038684;28;20435;-76
2022/09/05 06:13:44;;;;;;;2.70;2.20;;;;;;;18.08;100.00;102152.50;5042356;28;20438;-75
2022/09/05 06:16:18;;;;;;;3.03;2.20;;;;;;;18.04;100.00;102146.63;5043336;28;20446;-75
2022/09/05 06:19:01;;;;;;;2.80;2.50;;;;;;;17.85;100.00;102147.59;5048810;28;20432;-75
2022/09/05 06:21:45;;;;;;;2.10;1.90;;;;;;;17.98;100.00;102142.09;5047965;28;20429;-75
2022/09/05 06:24:13;;;;;;;2.50;2.03;;;;;;;18.05;100.00;102136.63;5041107;28;20438;-75
2022/09/05 06:27:06;;;;;;;2.40;2.20;;;;;;;18.21;100.00;102138.81;5042565;28;20462;-75
2022/09/05 06:29:43;;;;;;;2.73;2.47;;;;;;;18.42;100.00;102136.81;5046781;28;20966;-75
2022/09/05 06:32:46;;;;;;;1.63;1.50;;;;;;;18.06;100.00;102111.16;5045307;28;20442;-75
2022/09/05 06:35:17;;;;;;;7.30;2.40;;;;;;;18.47;100.00;102137.81;4965563;28;20442;-75
2022/09/05 06:37:46;;;;;;;1.90;1.80;;;;;;;18.43;100.00;102138.50;5028962;28;20459;-75
2022/09/05 06:40:17;;;;;;;1.80;1.70;;;;;;;18.55;100.00;102138.63;5048126;28;20442;-75
2022/09/05 06:42:59;;;;;;;2.67;2.47;;;;;;;18.19;100.00;102078.47;5024727;28;20533;-75
2022/09/05 06:45:48;;;;;;;3.20;2.23;;;;;;;18.66;100.00;102121.56;5047825;28;20444;-75
2022/09/05 06:48:25;;;;;;;4.23;2.87;;;;;;;18.53;100.00;102127.97;5047591;28;20458;-75
2022/09/05 06:51:22;;;;;;;3.10;2.33;;;;;;;18.53;100.00;102115.19;5045916;28;20445;-75
2022/09/05 06:54:20;;;;;;;2.40;2.20;;;;;;;18.79;100.00;102135.09;4998438;28;20554;-75
2022/09/05 06:57:07;;;;;;;2.30;2.10;;;;;;;18.88;100.00;102135.66;5005209;28;20449;-74
2022/09/05 06:59:51;;;;;;;4.57;1.90;;;;;;;19.03;100.00;102138.84;5043413;28;20426;-75
2022/09/05 07:02:33;;;;;;;3.87;1.90;;;;;;;19.14;100.00;102135.41;5027470;28;20490;-75
2022/09/05 07:05:10;;;;;;;2.97;2.20;;;;;;;19.00;100.00;102131.13;5044495;28;20431;-75
2022/09/05 07:07:53;;;;;;;1.90;1.50;;;;;;;19.05;100.00;102131.31;5044778;28;20496;-75
2022/09/05 07:10:35;;;;;;;4.73;2.53;;;;;;;19.16;100.00;102127.84;5048132;28;20457;-76
2022/09/05 07:13:09;;;;;;;2.43;2.07;;;;;;;19.22;100.00;102128.84;5047120;28;20512;-76
2022/09/05 07:16:02;;;;;;;3.40;2.20;;;;;;;19.31;100.00;102140.25;5048096;28;20417;-76
2022/09/05 07:18:54;;;;;;;3.10;2.23;;;;;;;19.33;100.00;102140.88;5049530;28;20426;-75
2022/09/05 07:21:34;;;;;;;2.00;1.80;;;;;;;19.48;100.00;102135.88;5042262;28;20448;-75
2022/09/05 07:24:02;;;;;;;1.87;1.53;;;;;;;19.40;100.00;102138.91;5041473;28;20445;-75
2022/09/05 07:26:32;;;;;;;2.00;1.90;;;;;;;19.25;100.00;102109.34;5045765;28;20438;-76
2022/09/05 07:29:03;;;;;;;4.17;2.50;;;;;;;19.55;100.00;102143.97;5046577;28;20485;-76
2022/09/05 07:31:32;;;;;;;2.63;2.07;;;;;;;19.18;100.00;102074.06;5042745;28;20446;-76
2022/09/05 07:34:09;;;;;;;3.37;2.00;;;;;;;19.00;100.00;102029.72;5035839;28;20682;-76
2022/09/05 07:36:51;;;;;;;3.13;2.30;;;;;;;19.17;100.00;102066.13;5043932;28;20480;-76
2022/09/05 07:39:21;;;;;;;6.40;2.23;;;;;;;19.41;100.00;102094.31;5029239;28;21006;-75
2022/09/05 07:41:52;;;;;;;2.60;2.10;;;;;;;19.60;100.00;102125.06;5030219;28;20466;-75
2022/09/05 07:44:36;;;;;;;2.10;1.90;;;;;;;19.40;100.00;102071.72;5030652;28;20529;-75
2022/09/05 07:47:15;;;;;;;4.40;2.07;;;;;;;19.92;100.00;102143.97;5032823;28;20592;-75
2022/09/05 07:49:44;;;;;;;2.27;1.80;;;;;;;19.78;100.00;102113.34;5019380;22;20539;-69
2022/09/05 07:52:22;;;;;;;2.53;2.00;;;;;;;19.97;100.00;102125.88;4991824;28;20451;-70
2022/09/05 07:54:51;;;;;;;3.70;2.20;;;;;;;19.84;100.00;102126.88;4991847;28;20440;-70
2022/09/05 07:57:31;;;;;;;2.67;2.23;;;;;;;20.07;100.00;102139.78;4991172;28;20443;-70
2022/09/05 08:00:10;;;;;;;2.83;2.27;;;;;;;19.83;100.00;102086.28;4991041;28;20459;-69
2022/09/05 08:02:45;;;;;;;4.07;2.27;;;;;;;20.15;100.00;102140.53;4995183;28;20877;-68
2022/09/05 08:05:20;;;;;;;2.70;2.07;;;;;;;20.25;100.00;102152.53;4993973;28;20471;-69
2022/09/05 08:07:51;;;;;;;2.30;1.97;;;;;;;20.22;100.00;102143.97;4994084;28;20818;-70
2022/09/05 08:10:32;;;;;;;3.43;2.00;;;;;;;19.81;100.00;102064.72;4991036;28;20480;-69
2022/09/05 08:13:10;;;;;;;2.90;2.30;;;;;;;20.50;100.00;102152.34;4992508;28;20488;-69
2022/09/05 08:15:42;;;;;;;2.70;2.40;;;;;;;20.24;100.00;102107.25;4991808;28;21097;-69
2022/09/05 08:18:14;;;;;;;3.67;2.23;;;;;;;20.56;100.00;102144.34;4990996;28;20843;-69
2022/09/05 08:20:54;;;;;;;2.70;2.27;;;;;;;20.54;100.00;102150.03;4989548;28;20440;-69
2022/09/05 08:23:46;;;;;;;2.47;2.27;;;;;;;20.71;100.00;102142.00;4990727;28;20527;-69
2022/09/05 08:26:43;;;;;;;1.93;1.70;;;;;;;20.67;100.00;102130.72;4995403;28;20913;-69
2022/09/05 08:29:29;;;;;;;1.90;1.80;;;;;;;20.74;100.00;102133.34;4961911;28;20480;-70
2022/09/05 08:31:55;;;;;;;2.63;1.80;;;;;;;20.90;100.00;102146.28;5011425;28;20441;-69
2022/09/05 08:34:35;;;;;;;2.20;1.60;;;;;;;20.93;100.00;102139.53;4992405;28;20451;-69
2022/09/05 08:37:01;;;;;;;2.40;1.80;;;;;;;21.04;100.00;102143.34;4993647;28;20228;-69
2022/09/05 08:39:30;;;;;;;1.90;1.80;;;;;;;21.03;100.00;102145.25;4991284;28;20459;-68
2022/09/05 08:42:17;;;;;;;2.00;1.90;;;;;;;20.84;100.00;102117.25;4989529;28;20462;-71
2022/09/05 08:45:17;;;;;;;2.80;2.33;;;;;;;20.95;100.00;102113.69;4988122;28;20447;-73
2022/09/05 08:48:06;;;;;;;2.30;1.90;;;;;;;20.83;100.00;102074.69;4992960;28;20427;-68
2022/09/05 08:50:40;;;;;;;3.17;2.40;;;;;;;21.24;100.00;102137.53;4998740;28;20562;-71
2022/09/05 08:53:12;;;;;;;1.77;1.67;;;;;;;21.29;100.00;102132.16;4995778;28;20516;-70
2022/09/05 08:55:49;;;;;;;1.73;1.63;;;;;;;21.37;100.00;102119.00;4993240;28;20523;-69
2022/09/05 08:58:39;;;;;;;2.60;1.97;;;;;;;21.42;100.00;102130.03;4995860;28;20538;-70
2022/09/05 09:01:45;;;;;;;1.90;1.60;;;;;;;21.54;100.00;102127.28;4997305;28;20973;-69
2022/09/05 09:04:36;;;;;;;1.80;1.70;;;;;;;21.61;100.00;102121.69;4997269;28;20487;-69
2022/09/05 09:07:20;;;;;;;1.97;1.87;;;;;;;21.54;100.00;102119.09;4977857;28;21079;-70
2022/09/05 09:09:51;;;;;;;2.27;1.73;;;;;;;21.64;100.00;102126.69;4993092;28;20558;-69
2022/09/05 09:12:44;;;;;;;2.90;2.00;;;;;;;21.66;100.00;102122.63;4995894;28;20451;-70
2022/09/05 09:15:12;;;;;;;2.27;2.07;;;;;;;21.66;100.00;102119.06;4996692;28;20428;-69
2022/09/05 09:17:44;;;;;;;2.17;1.77;;;;;;;21.48;100.00;102086.47;4997273;28;20962;-70
2022/09/05 09:20:24;;;;;;;2.87;1.43;;;;;;;21.74;100.00;102104.22;4999603;28;20448;-69
2022/09/05 09:23:13;;;;;;;2.17;1.60;;;;;;;21.74;100.00;102098.75;5001036;28;20439;-71
2022/09/05 09:25:53;;;;;;;2.20;2.00;;;;;;;21.82;100.00;102095.63;5000950;28;20516;-70
2022/09/05 09:28:34;;;;;;;1.57;1.47;;;;;;;21.87;100.00;102099.28;4989795;28;20502;-68
2022/09/05 09:31:09;;;;;;;10.77;1.97;;;;;;;21.85;100.00;102092.41;4989753;28;20447;-71
2022/09/05 09:33:55;;;;;;;2.00;1.80;;;;;;;21.43;100.00;102019.78;4997843;28;20459;-71
2022/09/05 09:36:58;;;;;;;2.30;2.10;;;;;;;22.00;100.00;102089.13;4993947;28;20463;-71
2022/09/05 09:39:34;;;;;;;2.07;1.97;;;;;;;21.65;100.00;102013.66;4984677;28;20538;-69
2022/09/05 09:42:38;;;;;;;3.33;2.17;;;;;;;22.18;100.00;102088.94;4994578;28;20446;-69
2022/09/05 09:45:25;;;;;;;2.70;2.17;;;;;;;22.32;100.00;102094.94;4949883;28;20986;-69
2022/09/05 09:48:08;;;;;;;2.97;2.27;;;;;;;22.37;100.00;102081.34;4939622;28;20484;-71
2022/09/05 09:50:42;;;;;;;3.53;1.80;;;;;;;22.48;100.00;102085.09;4987585;28;20480;-71
2022/09/05 09:53:23;;;;;;;2.60;2.40;;;;;;;22.45;100.00;102078.22;4995406;28;20443;-68
2022/09/05 09:56:27;;;;;;;2.90;2.37;;;;;;;22.70;100.00;102079.69;4997635;28;20436;-70
2022/09/05 09:59:46;;;;;;;2.70;1.83;;;;;;;22.62;100.00;102061.78;4971741;28;20453;-70
2022/09/05 10:02:36;;;;;;;2.03;1.90;;;;;;;22.66;100.00;102053.94;4944450;28;20434;-70
2022/09/05 10:05:49;;;;;;;1.70;1.60;;;;;;;22.91;100.00;102069.88;4998015;28;20516;-71
2022/09/05 10:08:34;;;;;;;2.10;1.90;;;;;;;22.98;100.00;102076.03;4983247;28;20774;-70
2022/09/05 10:11:13;;;;;;;2.83;2.10;;;;;;;22.82;100.00;102022.13;4996120;28;20531;-70
2022/09/05 10:14:16;;;;;;;2.67;1.90;;;;;;;23.33;100.00;102059.25;4996368;28;20441;-71
2022/09/05 10:17:00;;;;;;;2.30;1.63;;;;;;;23.28;100.00;102058.34;4994496;28;20436;-70
2022/09/05 10:19:46;;;;;;;2.10;1.90;;;;;;;23.32;100.00;102065.81;4998575;28;20469;-70
2022/09/05 10:22:25;;;;;;;2.73;1.93;;;;;;;23.29;100.00;102060.84;4999814;28;20454;-70
2022/09/05 10:25:29;;;;;;;2.60;2.03;;;;;;;23.43;100.00;102064.88;5003220;28;20774;-70
2022/09/05 10:28:13;;;;;;;2.17;1.90;;;;;;;23.42;100.00;102034.97;4997729;28;20424;-70
2022/09/05 10:31:06;;;;;;;2.43;1.60;;;;;;;23.68;100.00;102053.34;4999516;28;20468;-70
2022/09/05 10:34:05;;;;;;;1.97;1.87;;;;;;;23.53;100.00;102014.03;5000255;28;20506;-69
2022/09/05 10:36:31;;;;;;;2.00;1.80;;;;;;;23.80;100.00;102038.72;4949649;28;20423;-70
2022/09/05 10:39:16;;;;;;;3.47;2.17;;;;;;;23.94;100.00;102052.81;4997683;28;20591;-70
2022/09/05 10:41:57;;;;;;;1.80;1.70;;;;;;;23.53;100.00;101979.25;5002251;28;20425;-70
2022/09/05 10:44:45;;;;;;;3.80;2.10;;;;;;;24.08;100.00;102046.66;5000845;28;20447;-70
2022/09/05 10:47:29;;;;;;;2.43;1.90;;;;;;;24.27;100.00;102051.75;4997092;28;20437;-70
2022/09/05 10:50:11;;;;;;;2.33;1.93;;;;;;;24.03;100.00;102013.72;4997461;28;20469;-70
2022/09/05 10:52:49;;;;;;;2.63;1.90;;;;;;;24.27;100.00;102046.25;4999335;28;20980;-70
2022/09/05 10:55:42;;;;;;;3.13;1.60;;;;;;;24.30;100.00;102043.00;4987897;28;22032;-69
2022/09/05 10:58:10;;;;;;;3.47;1.83;;;;;;;24.31;100.00;102047.41;4993232;28;20436;-69
2022/09/05 11:00:53;;;;;;;2.60;1.80;;;;;;;24.34;100.00;102044.13;4987633;28;20443;-70
2022/09/05 11:03:31;;;;;;;5.83;1.60;;;;;;;24.26;100.00;102031.72;4996307;28;20442;-70
2022/09/05 11:06:00;;;;;;;1.87;1.70;;;;;;;23.81;100.00;101967.25;4998986;28;20748;-71
2022/09/05 11:08:50;;;;;;;1.53;1.30;;;;;;;24.47;100.00;102032.75;4996485;28;20441;-70
2022/09/05 11:11:23;;;;;;;1.97;1.73;;;;;;;24.34;100.00;101994.78;4997358;28;20431;-70
2022/09/05 11:13:51;;;;;;;2.00;1.80;;;;;;;24.53;100.00;102031.72;4994993;28;20446;-70
2022/09/05 11:16:29;;;;;;;1.77;1.40;;;;;;;24.52;100.00;102029.22;4988582;28;20454;-70
2022/09/05 11:19:12;;;;;;;1.40;1.30;;;;;;;24.67;100.00;102026.56;4990901;28;20468;-70
2022/09/05 11:21:43;;;;;;;2.87;2.03;;;;;;;24.61;100.00;102030.38;4993508;28;20792;-70
2022/09/05 11:24:27;;;;;;;1.57;1.47;;;;;;;24.50;100.00;102032.25;4998323;28;20668;-70
2022/09/05 11:27:46;;;;;;;2.10;1.90;;;;;;;24.58;100.00;102037.19;4994769;28;21030;-70
2022/09/05 11:30:19;;;;;;;2.00;1.90;;;;;;;24.65;100.00;102028.75;4934430;28;21030;-71
2022/09/05 11:32:44;;;;;;;2.33;1.93;;;;;;;24.63;100.00;102027.38;4980479;28;20451;-71
2022/09/05 11:35:23;;;;;;;1.80;1.67;;;;;;;24.77;100.00;102034.06;4997850;28;20990;-71
2022/09/05 11:37:58;;;;;;;3.03;1.73;;;;;;;24.81;100.00;102026.94;4997375;28;20788;-71
2022/09/05 11:40:45;;;;;;;1.73;1.60;;;;;;;24.95;100.00;102025.34;4998534;28;21016;-71
2022/09/05 11:43:29;;;;;;;1.60;1.50;;;;;;;25.08;100.00;102020.47;4999420;28;20417;-71
2022/09/05 11:46:21;;;;;;;2.40;2.03;;;;;;;25.23;100.00;102023.31;4997679;28;20516;-70
2022/09/05 11:49:05;;;;;;;2.03;1.87;;;;;;;25.20;100.00;102019.19;4998092;28;20475;-71
2022/09/05 11:52:02;;;;;;;2.20;1.90;;;;;;;25.24;100.00;102016.72;4998443;28;20530;-71
2022/09/05 11:54:46;;;;;;;2.73;2.00;;;;;;;25.41;100.00;102022.00;4987200;28;20436;-71
2022/09/05 11:57:42;;;;;;;2.17;1.90;;;;;;;25.62;100.00;102022.88;5000457;28;20419;-71
2022/09/05 12:00:16;;;;;;;2.70;2.30;;;;;;;25.74;100.00;102017.94;4999065;28;20456;-71
2022/09/05 12:03:18;;;;;;;2.87;1.83;;;;;;;25.84;100.00;102017.19;4999146;28;20424;-70
2022/09/05 12:06:06;;;;;;;3.50;1.93;;;;;;;25.93;100.00;102010.88;4996617;28;20502;-70
2022/09/05 12:08:53;;;;;;;2.83;1.80;;;;;;;25.91;100.00;102018.56;4995668;28;20453;-71
2022/09/05 12:11:40;;;;;;;2.20;1.70;;;;;;;25.86;100.00;102013.06;4998172;28;20451;-70
2022/09/05 12:14:24;;;;;;;1.70;1.60;;;;;;;25.85;100.00;102018.81;4997800;28;20676;-71
2022/09/05 12:17:20;;;;;;;1.90;1.67;;;;;;;25.86;100.00;102013.06;4999303;28;20944;-71
2022/09/05 12:20:11;;;;;;;2.30;1.90;;;;;;;25.87;100.00;102005.66;4998789;28;20800;-71
2022/09/05 12:22:52;;;;;;;1.83;1.30;;;;;;;25.90;100.00;101981.19;4993082;28;20440;-70
2022/09/05 12:25:24;;;;;;;1.93;1.50;;;;;;;26.09;100.00;101997.13;4984349;28;20958;-70
2022/09/05 12:27:55;;;;;;;2.50;1.67;;;;;;;26.25;100.00;102011.69;4992074;28;20439;-70